createdAt,value
2023-04-12T00:00:13.495Z,12.40
2023-04-12T00:02:42.516Z,13.73
2023-04-12T00:05:11.819Z,12.27
2023-04-12T00:07:40.208Z,14.00
2023-04-12T00:10:09.499Z,12.47
2023-04-12T00:12:40.499Z,13.07
2023-04-12T00:15:09.842Z,12.73
2023-04-12T00:17:37.853Z,11.73
2023-04-12T00:20:07.560Z,12.10
2023-04-12T00:22:37.058Z,13.27
2023-04-12T00:25:06.923Z,12.73
2023-04-12T00:27:34.988Z,13.50
2023-04-12T00:30:04.788Z,13.80
2023-04-12T00:32:32.757Z,12.87
2023-04-12T00:35:00.835Z,13.40
2023-04-12T00:37:28.869Z,13.20
2023-04-12T00:39:56.832Z,14.03
2023-04-12T00:42:24.805Z,13.47
2023-04-12T00:44:52.726Z,13.47
2023-04-12T00:47:22.246Z,13.47
2023-04-12T00:49:50.258Z,14.43
2023-04-12T00:52:18.563Z,13.77
2023-04-12T00:54:47.030Z,12.80
2023-04-12T00:57:15.132Z,12.93
2023-04-12T00:59:43.082Z,13.03
2023-04-12T01:02:11.259Z,13.20
2023-04-12T01:04:43.700Z,14.23
2023-04-12T01:07:20.618Z,13.97
2023-04-12T01:10:00.517Z,12.73
2023-04-12T01:12:42.263Z,14.07
2023-04-12T01:15:13.750Z,14.33
2023-04-12T01:17:48.830Z,13.83
2023-04-12T01:20:21.756Z,13.87
2023-04-12T01:23:21.303Z,14.47
2023-04-12T01:26:08.314Z,14.67
2023-04-12T01:28:42.474Z,16.23
2023-04-12T01:31:13.315Z,14.27
2023-04-12T01:33:44.529Z,14.23
2023-04-12T01:36:15.177Z,13.90
2023-04-12T01:38:43.841Z,16.00
2023-04-12T01:41:11.965Z,14.43
2023-04-12T01:43:44.807Z,14.47
2023-04-12T01:46:17.013Z,14.90
2023-04-12T01:48:50.452Z,15.50
2023-04-12T01:51:32.481Z,16.20
2023-04-12T01:54:04.331Z,15.83
2023-04-12T01:56:39.496Z,17.10
2023-04-12T01:59:12.129Z,15.30
2023-04-12T02:01:48.489Z,16.20
2023-04-12T02:04:33.784Z,16.00
2023-04-12T02:07:02.015Z,16.47
2023-04-12T02:09:30.015Z,15.47
2023-04-12T02:11:57.972Z,17.10
2023-04-12T02:14:27.925Z,16.50
2023-04-12T02:16:56.347Z,15.57
2023-04-12T02:19:24.742Z,16.57
2023-04-12T02:21:52.930Z,16.07
2023-04-12T02:24:20.895Z,16.37
2023-04-12T02:26:50.094Z,16.60
2023-04-12T02:29:18.520Z,16.10
2023-04-12T02:31:48.425Z,17.40
2023-04-12T02:34:18.200Z,17.27
2023-04-12T02:36:48.469Z,17.60
2023-04-12T02:39:18.979Z,17.57
2023-04-12T02:41:47.179Z,16.20
2023-04-12T02:44:15.130Z,17.17
2023-04-12T02:46:43.117Z,17.83
2023-04-12T02:49:12.562Z,16.43
2023-04-12T02:51:40.861Z,17.43
2023-04-12T02:54:08.761Z,16.20
2023-04-12T02:56:37.074Z,16.87
2023-04-12T02:59:05.017Z,16.27
2023-04-12T03:01:33.796Z,16.90
2023-04-12T03:04:02.243Z,16.07
2023-04-12T03:06:32.159Z,17.03
2023-04-12T03:09:00.508Z,18.17
2023-04-12T03:11:28.488Z,18.33
2023-04-12T03:13:56.629Z,17.43
2023-04-12T03:16:30.143Z,18.40
2023-04-12T03:18:58.762Z,18.73
2023-04-12T03:21:28.384Z,21.23
2023-04-12T03:23:58.080Z,20.47
2023-04-12T03:26:26.677Z,20.17
2023-04-12T03:29:00.751Z,20.30
2023-04-12T03:31:29.235Z,20.97
2023-04-12T03:33:57.580Z,20.13
2023-04-12T03:36:27.163Z,20.53
2023-04-12T03:38:55.578Z,18.93
2023-04-12T03:41:24.987Z,21.23
2023-04-12T03:43:52.936Z,21.70
2023-04-12T03:46:21.370Z,20.97
2023-04-12T03:48:50.870Z,20.27
2023-04-12T03:51:22.296Z,19.70
2023-04-12T03:53:50.302Z,20.77
2023-04-12T03:56:20.143Z,21.83
2023-04-12T03:58:49.608Z,19.80
2023-04-12T04:01:18.015Z,20.13
2023-04-12T04:03:46.672Z,18.70
2023-04-12T04:06:15.153Z,18.13
2023-04-12T04:08:44.721Z,20.23
2023-04-12T04:11:14.253Z,20.37
2023-04-12T04:13:42.425Z,19.53
2023-04-12T04:16:12.057Z,21.93
2023-04-12T04:18:40.198Z,21.40
2023-04-12T04:21:08.992Z,20.17
2023-04-12T04:23:39.177Z,21.93
2023-04-12T04:26:10.576Z,19.43
2023-04-12T04:28:39.563Z,18.63
2023-04-12T04:31:10.701Z,21.50
2023-04-12T04:33:41.834Z,19.53
2023-04-12T04:36:13.436Z,19.97
2023-04-12T04:38:42.127Z,22.63
2023-04-12T04:41:10.534Z,18.80
2023-04-12T04:43:40.234Z,20.13
2023-04-12T04:46:08.533Z,20.00
2023-04-12T04:48:36.665Z,19.37
2023-04-12T04:51:06.282Z,19.33
2023-04-12T04:53:34.730Z,20.37
2023-04-12T04:56:02.757Z,20.80
2023-04-12T04:58:30.766Z,20.07
2023-04-12T05:00:59.883Z,19.50
2023-04-12T05:03:30.836Z,17.97
2023-04-12T05:05:59.108Z,20.60
2023-04-12T05:08:29.773Z,20.10
2023-04-12T05:10:58.248Z,17.83
2023-04-12T05:13:26.276Z,16.87
2023-04-12T05:15:54.306Z,15.97
2023-04-12T05:18:22.237Z,20.10
2023-04-12T05:20:50.584Z,19.57
2023-04-12T05:23:20.840Z,15.77
2023-04-12T05:25:50.432Z,15.57
2023-04-12T05:28:18.581Z,16.97
2023-04-12T05:30:47.921Z,14.90
2023-04-12T05:33:16.160Z,15.10
2023-04-12T05:35:44.237Z,12.87
2023-04-12T05:38:12.214Z,13.70
2023-04-12T05:40:40.108Z,15.13
2023-04-12T05:43:12.575Z,17.10
2023-04-12T05:45:41.937Z,12.90
2023-04-12T05:48:10.180Z,15.93
2023-04-12T05:50:38.338Z,12.27
2023-04-12T05:53:06.382Z,11.93
2023-04-12T05:55:35.940Z,10.60
2023-04-12T05:58:05.554Z,12.30
2023-04-12T06:00:35.023Z,13.17
2023-04-12T06:03:03.963Z,10.47
2023-04-12T06:05:32.934Z,15.40
2023-04-12T06:08:02.288Z,10.13
2023-04-12T06:10:32.422Z,9.27
2023-04-12T06:13:00.347Z,11.43
2023-04-12T06:15:29.027Z,10.87
2023-04-12T06:17:58.624Z,10.87
2023-04-12T06:20:26.656Z,9.73
2023-04-12T06:22:54.693Z,10.07
2023-04-12T06:25:24.117Z,9.03
2023-04-12T06:27:52.072Z,10.13
2023-04-12T06:30:20.744Z,9.63
2023-04-12T06:32:48.822Z,12.30
2023-04-12T06:35:20.301Z,12.10
2023-04-12T06:37:48.422Z,9.43
2023-04-12T06:40:16.592Z,9.80
2023-04-12T06:42:44.591Z,11.77
2023-04-12T06:45:12.776Z,11.87
2023-04-12T06:47:40.783Z,10.77
2023-04-12T06:50:09.934Z,13.57
2023-04-12T06:52:39.265Z,9.37
2023-04-12T06:55:08.416Z,9.73
2023-04-12T06:57:36.436Z,8.03
2023-04-12T07:00:05.076Z,37.73
2023-04-12T07:02:33.533Z,24.50
2023-04-12T07:05:01.661Z,20.47
2023-04-12T07:07:29.623Z,25.47
2023-04-12T07:10:00.418Z,12.73
2023-04-12T07:12:28.434Z,16.57
2023-04-12T07:14:56.407Z,11.77
2023-04-12T07:17:27.239Z,6.67
2023-04-12T07:19:55.242Z,8.97
2023-04-12T07:22:23.442Z,11.23
2023-04-12T07:24:51.919Z,10.40
2023-04-12T07:27:21.286Z,6.60
2023-04-12T07:29:49.245Z,6.77
2023-04-12T07:32:17.191Z,9.73
2023-04-12T07:34:45.065Z,7.47
2023-04-12T07:37:13.172Z,6.80
2023-04-12T07:39:44.052Z,8.57
2023-04-12T07:42:12.088Z,7.97
2023-04-12T07:44:41.536Z,5.70
2023-04-12T07:47:09.608Z,6.37
2023-04-12T07:49:37.506Z,7.07
2023-04-12T07:52:05.908Z,5.73
2023-04-12T07:54:33.890Z,5.53
2023-04-12T07:57:03.718Z,6.43
2023-04-12T07:59:32.316Z,5.67
2023-04-12T08:02:02.108Z,5.37
2023-04-12T08:04:30.341Z,5.77
2023-04-12T08:06:58.332Z,6.47
2023-04-12T08:09:26.453Z,5.80
2023-04-12T08:11:54.425Z,4.30
2023-04-12T08:14:22.594Z,5.83
2023-04-12T08:16:50.609Z,4.90
2023-04-12T08:19:21.471Z,4.77
2023-04-12T08:21:49.397Z,6.07
2023-04-12T08:24:17.388Z,8.37
2023-04-12T08:26:45.882Z,5.00
2023-04-12T08:29:14.010Z,4.07
2023-04-12T08:31:42.162Z,8.17
2023-04-12T08:34:10.234Z,3.97
2023-04-12T08:36:41.088Z,6.32
2023-04-12T08:39:09.574Z,6.03
2023-04-12T08:41:39.945Z,7.78
2023-04-12T08:44:08.312Z,5.70
2023-04-12T08:46:37.750Z,6.30
2023-04-12T08:49:05.905Z,7.33
2023-04-12T08:51:36.336Z,4.00
2023-04-12T08:54:06.371Z,7.78
2023-04-12T08:56:34.606Z,5.90
2023-04-12T08:59:03.645Z,3.50
2023-04-12T09:01:31.615Z,6.00
2023-04-12T09:04:00.044Z,3.50
2023-04-12T09:06:28.338Z,8.07
2023-04-12T09:08:58.099Z,4.47
2023-04-12T09:11:28.912Z,15.95
2023-04-12T09:13:58.630Z,10.23
2023-04-12T09:16:37.518Z,15.40
2023-04-12T09:19:05.725Z,21.02
2023-04-12T09:21:34.904Z,3.90
2023-04-12T09:24:11.757Z,3.10
2023-04-12T09:26:43.002Z,7.75
2023-04-12T09:29:25.183Z,3.88
2023-04-12T09:31:58.046Z,9.35
2023-04-12T09:34:27.767Z,9.02
2023-04-12T09:36:56.135Z,7.00
2023-04-12T09:39:33.106Z,17.83
2023-04-12T09:42:25.034Z,35.85
2023-04-12T09:44:59.026Z,7.65
2023-04-12T09:47:39.399Z,15.77
2023-04-12T09:50:09.990Z,11.70
2023-04-12T09:52:39.501Z,6.97
2023-04-12T09:55:11.219Z,8.30
2023-04-12T09:57:43.205Z,3.70
2023-04-12T10:00:17.698Z,8.35
2023-04-12T10:02:47.844Z,6.57
2023-04-12T10:05:19.001Z,4.18
2023-04-12T10:07:48.115Z,5.38
2023-04-12T10:10:18.155Z,5.72
2023-04-12T10:12:49.478Z,7.65
2023-04-12T10:15:18.745Z,11.02
2023-04-12T10:17:48.324Z,12.93
2023-04-12T10:20:18.230Z,10.85
2023-04-12T10:22:48.913Z,11.85
2023-04-12T10:25:19.382Z,6.05
2023-04-12T10:27:49.883Z,8.02
2023-04-12T10:30:25.068Z,10.27
2023-04-12T10:33:14.809Z,5.88
2023-04-12T10:35:54.421Z,5.45
2023-04-12T10:38:25.046Z,7.82
2023-04-12T10:41:17.290Z,3.25
2023-04-12T10:43:48.285Z,4.63
2023-04-12T10:46:53.137Z,8.57
2023-04-12T10:49:21.510Z,4.93
2023-04-12T10:52:16.065Z,3.95
2023-04-12T10:54:44.318Z,3.53
2023-04-12T10:57:48.135Z,6.82
2023-04-12T11:00:18.386Z,6.53
2023-04-12T11:03:07.629Z,3.45
2023-04-12T11:05:57.680Z,8.73
2023-04-12T11:08:26.367Z,6.80
2023-04-12T11:11:00.273Z,8.82
2023-04-12T11:13:29.233Z,3.50
2023-04-12T11:16:02.556Z,22.63
2023-04-12T11:18:30.654Z,2.35
2023-04-12T11:20:59.606Z,3.97
2023-04-12T11:23:28.221Z,3.67
2023-04-12T11:26:14.951Z,5.60
2023-04-12T11:28:43.149Z,3.10
2023-04-12T11:31:12.615Z,4.18
2023-04-12T11:33:41.800Z,3.22
2023-04-12T11:36:13.240Z,2.67
2023-04-12T11:38:42.072Z,3.20
2023-04-12T11:41:11.635Z,3.58
2023-04-12T11:43:40.280Z,3.50
2023-04-12T11:46:08.906Z,3.83
2023-04-12T11:48:39.695Z,3.80
2023-04-12T11:51:20.836Z,3.30
2023-04-12T11:53:53.942Z,5.82
2023-04-12T11:56:22.271Z,3.55
2023-04-12T11:58:50.460Z,1.80
2023-04-12T12:01:20.132Z,3.33
2023-04-12T12:03:50.602Z,5.25
2023-04-12T12:06:20.759Z,3.90
2023-04-12T12:08:51.489Z,3.30
2023-04-12T12:11:21.820Z,5.60
2023-04-12T12:13:50.995Z,4.00
2023-04-12T12:16:19.924Z,3.05
2023-04-12T12:18:52.618Z,4.13
2023-04-12T12:21:22.283Z,4.18
2023-04-12T12:23:51.109Z,5.55
2023-04-12T12:26:24.862Z,3.38
2023-04-12T12:28:55.700Z,4.32
2023-04-12T12:31:26.746Z,5.30
2023-04-12T12:33:58.333Z,5.80
2023-04-12T12:36:33.659Z,5.95
2023-04-12T12:39:07.975Z,3.88
2023-04-12T12:41:36.725Z,3.42
2023-04-12T12:44:04.858Z,5.05
2023-04-12T12:46:50.823Z,2.05
2023-04-12T12:49:22.265Z,2.75
2023-04-12T12:51:52.097Z,2.83
2023-04-12T12:54:36.868Z,4.65
2023-04-12T12:57:08.168Z,3.70
2023-04-12T12:59:36.339Z,4.60
2023-04-12T13:02:05.525Z,6.27
2023-04-12T13:04:35.263Z,3.40
2023-04-12T13:07:03.307Z,3.43
2023-04-12T13:09:32.791Z,3.40
2023-04-12T13:12:02.017Z,4.97
2023-04-12T13:14:30.573Z,2.93
2023-04-12T13:16:58.649Z,3.53
2023-04-12T13:19:26.785Z,3.33
2023-04-12T13:21:57.305Z,2.10
2023-04-12T13:24:25.302Z,2.00
2023-04-12T13:26:53.321Z,3.37
2023-04-12T13:29:21.224Z,2.40
2023-04-12T13:31:49.388Z,4.27
2023-04-12T13:34:17.626Z,5.87
2023-04-12T13:36:46.082Z,2.93
2023-04-12T13:39:15.500Z,3.87
2023-04-12T13:41:43.512Z,3.60
2023-04-12T13:44:11.777Z,3.43
2023-04-12T13:46:39.834Z,2.33
2023-04-12T13:49:07.951Z,2.40
2023-04-12T13:51:36.059Z,3.37
2023-04-12T13:54:04.233Z,3.17
2023-04-12T13:56:33.659Z,3.50
2023-04-12T13:59:02.513Z,4.90
2023-04-12T14:01:30.740Z,4.73
2023-04-12T14:03:58.695Z,2.53
2023-04-12T14:06:27.225Z,2.43
2023-04-12T14:08:55.162Z,2.07
2023-04-12T14:11:24.996Z,1.63
2023-04-12T14:13:54.669Z,2.40
2023-04-12T14:16:22.607Z,2.13
2023-04-12T14:18:50.682Z,2.03
2023-04-12T14:21:18.862Z,6.00
2023-04-12T14:23:47.087Z,4.67
2023-04-12T14:26:20.389Z,4.37
2023-04-12T14:28:50.163Z,3.03
2023-04-12T14:31:22.500Z,2.57
2023-04-12T14:33:50.489Z,5.07
2023-04-12T14:36:21.437Z,2.00
2023-04-12T14:38:49.672Z,4.87
2023-04-12T14:41:19.877Z,5.83
2023-04-12T14:43:47.961Z,2.70
2023-04-12T14:46:19.257Z,3.03
2023-04-12T14:48:47.403Z,3.23
2023-04-12T14:51:15.329Z,4.53
2023-04-12T14:53:43.691Z,6.10
2023-04-12T14:56:20.407Z,3.43
2023-04-12T14:58:50.585Z,3.07
2023-04-12T15:01:20.015Z,1.73
2023-04-12T15:03:48.273Z,3.03
2023-04-12T15:06:16.458Z,2.83
2023-04-12T15:08:44.678Z,3.37
2023-04-12T15:11:13.598Z,3.27
2023-04-12T15:13:44.397Z,2.00
2023-04-12T15:16:14.345Z,3.60
2023-04-12T15:18:43.734Z,4.33
2023-04-12T15:21:12.948Z,2.50
2023-04-12T15:23:42.083Z,3.73
2023-04-12T15:26:10.730Z,3.87
2023-04-12T15:28:39.085Z,2.10
2023-04-12T15:31:08.147Z,3.50
2023-04-12T15:33:37.570Z,2.60
2023-04-12T15:36:07.460Z,2.33
2023-04-12T15:38:41.959Z,2.20
2023-04-12T15:41:10.757Z,3.50
2023-04-12T15:43:38.790Z,2.10
2023-04-12T15:46:07.494Z,2.13
2023-04-12T15:48:39.051Z,3.97
2023-04-12T15:51:08.686Z,3.00
2023-04-12T15:53:37.205Z,3.10
2023-04-12T15:56:05.656Z,2.00
2023-04-12T15:58:33.648Z,2.10
2023-04-12T16:01:01.817Z,3.47
2023-04-12T16:03:30.293Z,1.93
2023-04-12T16:05:58.285Z,3.07
2023-04-12T16:08:28.342Z,3.80
2023-04-12T16:10:56.370Z,3.30
2023-04-12T16:13:24.329Z,3.43
2023-04-12T16:15:52.792Z,2.10
2023-04-12T16:18:20.779Z,2.07
2023-04-12T16:20:53.106Z,2.70
2023-04-12T16:23:21.343Z,2.03
2023-04-12T16:25:53.124Z,3.97
2023-04-12T16:28:22.688Z,4.40
2023-04-12T16:30:50.885Z,3.53
2023-04-12T16:33:19.481Z,3.57
2023-04-12T16:35:47.456Z,4.00
2023-04-12T16:38:17.662Z,3.97
2023-04-12T16:40:45.802Z,3.37
2023-04-12T16:43:15.117Z,3.27
2023-04-12T16:45:45.739Z,3.87
2023-04-12T16:48:15.220Z,3.20
2023-04-12T16:50:45.002Z,3.60
2023-04-12T16:53:13.047Z,2.73
2023-04-12T16:55:43.472Z,2.30
2023-04-12T16:58:14.344Z,2.40
2023-04-12T17:00:44.194Z,2.23
2023-04-12T17:03:13.127Z,5.30
2023-04-12T17:05:41.409Z,4.27
2023-04-12T17:08:09.972Z,2.67
2023-04-12T17:10:38.490Z,2.93
2023-04-12T17:13:06.748Z,2.57
2023-04-12T17:15:34.815Z,4.10
2023-04-12T17:18:05.724Z,3.67
2023-04-12T17:20:34.584Z,2.80
2023-04-12T17:23:03.304Z,2.30
2023-04-12T17:25:32.300Z,3.00
2023-04-12T17:28:01.233Z,3.70
2023-04-12T17:30:29.933Z,3.60
2023-04-12T17:33:01.486Z,2.70
2023-04-12T17:35:31.339Z,3.57
2023-04-12T17:37:59.272Z,2.87
2023-04-12T17:40:27.271Z,3.93
2023-04-12T17:42:55.539Z,3.63
2023-04-12T17:45:24.127Z,3.10
2023-04-12T17:47:52.184Z,3.87
2023-04-12T17:50:20.176Z,5.00
2023-04-12T17:52:50.134Z,4.50
2023-04-12T17:55:23.567Z,3.67
2023-04-12T17:57:51.573Z,4.73
2023-04-12T18:00:20.774Z,3.33
2023-04-12T18:02:50.194Z,3.60
2023-04-12T18:05:20.804Z,3.90
2023-04-12T18:07:50.226Z,4.17
2023-04-12T18:10:21.406Z,4.00
2023-04-12T18:12:50.408Z,3.83
2023-04-12T18:15:19.074Z,6.27
2023-04-12T18:17:47.320Z,5.87
2023-04-12T18:20:16.509Z,4.73
2023-04-12T18:22:45.932Z,4.73
2023-04-12T18:25:16.740Z,8.63
2023-04-12T18:27:47.738Z,5.33
2023-04-12T18:30:17.366Z,4.00
2023-04-12T18:32:45.800Z,7.20
2023-04-12T18:35:13.945Z,5.37
2023-04-12T18:37:42.636Z,5.67
2023-04-12T18:40:11.814Z,7.70
2023-04-12T18:42:41.357Z,5.97
2023-04-12T18:45:10.377Z,6.70
2023-04-12T18:47:39.107Z,5.57
2023-04-12T18:50:08.625Z,3.60
2023-04-12T18:52:37.952Z,3.70
2023-04-12T18:55:07.238Z,8.10
2023-04-12T18:57:35.456Z,4.30
2023-04-12T19:00:10.497Z,5.43
2023-04-12T19:02:38.601Z,5.43
2023-04-12T19:05:06.852Z,6.63
2023-04-12T19:07:34.749Z,6.67
2023-04-12T19:10:02.764Z,9.40
2023-04-12T19:12:30.934Z,7.07
2023-04-12T19:14:58.906Z,8.30
2023-04-12T19:17:29.415Z,6.80
2023-04-12T19:19:58.671Z,9.80
2023-04-12T19:22:28.621Z,12.17
2023-04-12T19:24:56.862Z,8.70
2023-04-12T19:27:25.216Z,7.37
2023-04-12T19:29:53.597Z,7.93
2023-04-12T19:32:22.157Z,7.27
2023-04-12T19:34:51.877Z,7.53
2023-04-12T19:37:19.851Z,8.20
2023-04-12T19:39:48.625Z,5.77
2023-04-12T19:42:17.737Z,6.83
2023-04-12T19:44:46.476Z,7.27
2023-04-12T19:47:15.530Z,6.67
2023-04-12T19:49:43.765Z,5.80
2023-04-12T19:52:15.421Z,7.20
2023-04-12T19:54:43.313Z,11.37
2023-04-12T19:57:11.768Z,6.60
2023-04-12T19:59:39.890Z,8.13
2023-04-12T20:02:08.551Z,7.17
2023-04-12T20:04:38.321Z,11.43
2023-04-12T20:07:06.722Z,11.60
2023-04-12T20:09:36.078Z,7.57
2023-04-12T20:12:04.122Z,6.43
2023-04-12T20:14:35.378Z,6.40
2023-04-12T20:17:06.164Z,5.97
2023-04-12T20:19:34.580Z,7.17
2023-04-12T20:22:03.479Z,6.33
2023-04-12T20:24:34.453Z,8.53
2023-04-12T20:27:03.928Z,6.47
2023-04-12T20:29:33.427Z,6.80
2023-04-12T20:32:02.321Z,5.70
2023-04-12T20:34:30.301Z,5.50
2023-04-12T20:36:59.976Z,7.13
2023-04-12T20:39:29.645Z,5.80
2023-04-12T20:42:01.120Z,5.97
2023-04-12T20:44:30.710Z,5.70
2023-04-12T20:46:59.042Z,6.23
2023-04-12T20:49:27.886Z,5.57
2023-04-12T20:51:57.355Z,5.03
2023-04-12T20:54:25.483Z,5.80
2023-04-12T20:56:54.327Z,4.77
2023-04-12T20:59:23.056Z,5.27
2023-04-12T21:04:41.250Z,5.80
2023-04-12T21:07:09.356Z,5.30
2023-04-12T21:09:37.666Z,5.23
2023-04-12T21:12:07.342Z,4.03
2023-04-12T21:14:35.626Z,3.27
2023-04-12T21:17:07.193Z,3.90
2023-04-12T21:19:39.076Z,5.73
2023-04-12T21:22:08.372Z,3.37
2023-04-12T21:24:38.974Z,3.73
2023-04-12T21:27:08.462Z,3.57
2023-04-12T21:29:41.388Z,3.43
2023-04-12T21:32:11.297Z,3.13
2023-04-12T21:34:39.273Z,3.33
2023-04-12T21:37:07.761Z,4.40
2023-04-12T21:39:35.793Z,3.67
2023-04-12T21:42:03.707Z,3.67
2023-04-12T21:44:32.260Z,4.03
2023-04-12T21:47:00.230Z,5.00
2023-04-12T21:49:31.224Z,4.33
2023-04-12T21:51:59.452Z,3.60
2023-04-12T21:54:28.938Z,4.07
2023-04-12T21:56:57.442Z,4.30
2023-04-12T21:59:26.631Z,5.23
2023-04-12T22:01:54.707Z,5.67
2023-04-12T22:04:22.687Z,8.23
2023-04-12T22:06:52.632Z,6.10
2023-04-12T22:09:20.603Z,5.80
2023-04-12T22:11:49.140Z,6.10
2023-04-12T22:14:17.088Z,6.73
2023-04-12T22:16:45.294Z,7.07
2023-04-12T22:19:13.546Z,7.17
2023-04-12T22:21:41.569Z,6.70
2023-04-12T22:24:10.943Z,7.67
2023-04-12T22:26:38.952Z,16.67
2023-04-12T22:29:07.198Z,17.93
2023-04-12T22:31:35.604Z,18.20
2023-04-12T22:34:04.622Z,18.03
2023-04-12T22:36:37.170Z,12.67
2023-04-12T22:39:05.353Z,14.97
2023-04-12T22:41:34.676Z,13.97
2023-04-12T22:44:03.040Z,16.70
2023-04-12T22:46:32.466Z,10.80
2023-04-12T22:49:01.629Z,20.37
2023-04-12T22:51:29.569Z,13.73
2023-04-12T22:53:58.195Z,15.97
2023-04-12T22:56:27.095Z,16.17
2023-04-12T22:58:57.322Z,16.63
2023-04-12T23:01:25.356Z,17.00
2023-04-12T23:03:54.200Z,13.40
2023-04-12T23:06:22.120Z,18.33
2023-04-12T23:08:50.022Z,19.03
2023-04-12T23:11:18.060Z,20.37
2023-04-12T23:13:46.075Z,22.30
2023-04-12T23:16:16.250Z,20.37
2023-04-12T23:18:45.128Z,17.83
2023-04-12T23:21:13.318Z,18.40
2023-04-12T23:23:41.582Z,17.83
2023-04-12T23:26:10.823Z,21.97
2023-04-12T23:28:40.372Z,18.07
2023-04-12T23:31:08.885Z,18.70
2023-04-12T23:33:43.004Z,19.23
2023-04-12T23:36:11.814Z,18.93
2023-04-12T23:38:40.755Z,18.70
2023-04-12T23:41:11.538Z,15.87
2023-04-12T23:43:39.545Z,15.13
2023-04-12T23:46:08.350Z,12.97
2023-04-12T23:48:36.787Z,14.77
2023-04-12T23:51:06.921Z,12.37
2023-04-12T23:53:34.925Z,12.17
2023-04-12T23:56:02.954Z,12.47
2023-04-12T23:58:31.065Z,10.03
